Search for airport 
image banner adimage banner ad
image banner ad

DN003 - Potiskum/Yobe

Located in , Nigeria

ICAO - , IATA -

Data provided by Airmate  

General information

Coordinates: N10°13'60" E10°12'0"
Elevation is feet MSL.
 
Rated:
View ratings: [VIEW]


View others Airports in Gombe

Operational data

Open for public use
Current time UTC:
Current local time:
Weather at : DNGO - Gombe/Gombe ( 77 km )
TAF: TAF DNGO 062300Z 0700/0806 22006KT 9999 SCT010 TEMPO 0713/0719 5000 TSRA BKN010 FEW022CB
View NOTAMs / SUP AIP / TFR affecting this airport [VIEW]
Communications frequencies: [VIEW]

Runways:

RWY identifierQFULength (ft)Width (ft)SurfaceLDA (ft)
0500
2300
1000
2800

Airport contact information

Address: Nigeria

Satellite view of DN003